Time;durP1;ratioP1;P1;durP2;ratioP2;P2;SDS_P1;SDS_P2;PMS_P1;PMS_P2;Temp;Humidity;BMP_temperature;BMP_pressure;BME280_temperature;BME280_humidity;BME280_pressure;Samples;Min_cycle;Max_cycle;Signal;HPM_P1;HPM_P2
2023/03/16 00:01:23;;;;;;;;;7.33;5.00;;;;;;;;6335939;22;46279;-82
2023/03/16 00:03:49;;;;;;;;;9.00;6.00;;;;;;;;6336228;22;45325;-82
2023/03/16 00:06:14;;;;;;;;;5.67;5.00;;;;;;;;6336082;22;45267;-82
2023/03/16 00:08:42;;;;;;;;;6.00;5.33;;;;;;;;6335571;22;45501;-82
2023/03/16 00:11:07;;;;;;;;;5.50;4.00;;;;;;;;6335361;22;46184;-82
2023/03/16 00:13:32;;;;;;;;;4.33;2.00;;;;;;;;6335917;22;45418;-82
2023/03/16 00:15:58;;;;;;;;;3.00;3.00;;;;;;;;6335555;22;45263;-82
2023/03/16 00:18:27;;;;;;;;;3.50;3.50;;;;;;;;6336310;22;45405;-82
2023/03/16 00:21:00;;;;;;;;;2.00;2.00;;;;;;;;6336229;22;45354;-81
2023/03/16 00:23:26;;;;;;;;;6.75;3.00;;;;;;;;6335840;22;45301;-82
2023/03/16 00:25:58;;;;;;;;;3.00;3.00;;;;;;;;6335853;22;45280;-82
2023/03/16 00:28:24;;;;;;;;;5.25;2.00;;;;;;;;6336142;22;45214;-82
2023/03/16 00:30:49;;;;;;;;;3.00;2.00;;;;;;;;6335699;22;46217;-82
2023/03/16 00:33:15;;;;;;;;;6.33;3.00;;;;;;;;6336291;22;45317;-81
2023/03/16 00:35:49;;;;;;;;;2.00;2.00;;;;;;;;6335689;22;45207;-81
2023/03/16 00:38:17;;;;;;;;;4.00;3.00;;;;;;;;6336358;22;45322;-82
2023/03/16 00:40:43;;;;;;;;;3.00;2.00;;;;;;;;6336110;22;46448;-81
2023/03/16 00:43:08;;;;;;;;;5.00;3.00;;;;;;;;6336256;22;45265;-82
2023/03/16 00:45:33;;;;;;;;;7.00;5.00;;;;;;;;6335923;22;45280;-82
2023/03/16 00:47:59;;;;;;;;;6.00;5.00;;;;;;;;6336150;22;45414;-82
2023/03/16 00:50:24;;;;;;;;;5.00;1.00;;;;;;;;6336063;22;45424;-82
2023/03/16 00:52:52;;;;;;;;;2.00;2.00;;;;;;;;6335985;22;45428;-82
2023/03/16 00:55:17;;;;;;;;;2.50;2.00;;;;;;;;6336075;22;45275;-82
2023/03/16 00:57:43;;;;;;;;;6.00;2.00;;;;;;;;6335636;22;45389;-82
2023/03/16 01:00:14;;;;;;;;;5.25;2.00;;;;;;;;6334960;22;46321;-82
2023/03/16 01:02:40;;;;;;;;;2.00;2.00;;;;;;;;6335324;22;45628;-82
2023/03/16 01:05:05;;;;;;;;;3.00;2.00;;;;;;;;6335503;22;45283;-81
2023/03/16 01:07:30;;;;;;;;;6.50;5.00;;;;;;;;6335375;22;45450;-81
2023/03/16 01:09:56;;;;;;;;;5.00;3.00;;;;;;;;6335851;22;45386;-82
2023/03/16 01:12:22;;;;;;;;;5.00;3.00;;;;;;;;6338604;22;45312;-82
2023/03/16 01:14:47;;;;;;;;;6.00;2.00;;;;;;;;6339991;22;45371;-81
2023/03/16 01:17:12;;;;;;;;;7.00;3.00;;;;;;;;6341204;22;45359;-81
2023/03/16 01:19:38;;;;;;;;;5.75;3.00;;;;;;;;6339226;22;46134;-81
2023/03/16 01:22:04;;;;;;;;;6.00;3.00;;;;;;;;6340145;22;45143;-82
2023/03/16 01:24:30;;;;;;;;;2.25;2.00;;;;;;;;6340509;22;45267;-82
2023/03/16 01:26:55;;;;;;;;;2.00;2.00;;;;;;;;6340113;22;45344;-81
2023/03/16 01:29:20;;;;;;;;;4.50;4.50;;;;;;;;6338099;22;45275;-81
2023/03/16 01:31:46;;;;;;;;;9.33;3.00;;;;;;;;6337385;22;45300;-81
2023/03/16 01:34:15;;;;;;;;;5.00;3.00;;;;;;;;6339518;22;45667;-82
2023/03/16 01:36:41;;;;;;;;;3.00;3.00;;;;;;;;6339895;22;45312;-81
2023/03/16 01:39:06;;;;;;;;;1.25;0.00;;;;;;;;6338934;22;45537;-82
2023/03/16 01:41:31;;;;;;;;;3.33;3.33;;;;;;;;6336555;22;45358;-81
2023/03/16 01:43:57;;;;;;;;;1.00;1.00;;;;;;;;6334741;22;45303;-82
2023/03/16 01:46:26;;;;;;;;;6.00;3.00;;;;;;;;6336812;22;45172;-81
2023/03/16 01:49:22;;;;;;;;;6.00;2.00;;;;;;;;6334828;22;47504;-82
2023/03/16 01:51:50;;;;;;;;;3.25;2.50;;;;;;;;6310812;22;45381;-81
2023/03/16 01:54:15;;;;;;;;;4.00;4.00;;;;;;;;6336926;22;45425;-81
2023/03/16 01:56:43;;;;;;;;;3.00;2.00;;;;;;;;6337037;22;45341;-81
2023/03/16 01:59:13;;;;;;;;;6.25;5.50;;;;;;;;6336370;22;46389;-82
2023/03/16 02:01:38;;;;;;;;;6.00;2.50;;;;;;;;6337061;22;45314;-82
2023/03/16 02:04:12;;;;;;;;;3.25;2.75;;;;;;;;6337156;22;45225;-81
2023/03/16 02:06:38;;;;;;;;;4.50;4.50;;;;;;;;6337004;22;45415;-82
2023/03/16 02:09:04;;;;;;;;;8.00;5.25;;;;;;;;6336985;22;45387;-81
2023/03/16 02:11:30;;;;;;;;;3.50;2.75;;;;;;;;6336396;22;45320;-82
2023/03/16 02:13:57;;;;;;;;;3.50;2.75;;;;;;;;6337262;22;45260;-82
2023/03/16 02:16:22;;;;;;;;;5.00;2.25;;;;;;;;6337071;22;45296;-82
2023/03/16 02:18:49;;;;;;;;;3.00;3.00;;;;;;;;6336182;22;47331;-81
2023/03/16 02:21:21;;;;;;;;;3.50;3.50;;;;;;;;6336284;22;45204;-82
2023/03/16 02:23:49;;;;;;;;;4.50;4.50;;;;;;;;6336673;22;45231;-82
2023/03/16 02:26:21;;;;;;;;;4.50;3.25;;;;;;;;6336279;22;45231;-82
2023/03/16 02:28:50;;;;;;;;;3.75;2.00;;;;;;;;6336024;22;46315;-81
2023/03/16 02:31:15;;;;;;;;;2.00;2.00;;;;;;;;6336385;22;45549;-82
2023/03/16 02:33:41;;;;;;;;;7.25;3.50;;;;;;;;6336800;22;45213;-82
2023/03/16 02:36:06;;;;;;;;;5.25;3.25;;;;;;;;6336940;22;45232;-82
2023/03/16 02:38:32;;;;;;;;;12.25;5.00;;;;;;;;6334624;22;46107;-82
2023/03/16 02:41:00;;;;;;;;;12.33;5.00;;;;;;;;6336191;22;45277;-81
2023/03/16 02:43:27;;;;;;;;;6.00;4.50;;;;;;;;6336548;22;45252;-82
2023/03/16 02:45:57;;;;;;;;;7.25;5.00;;;;;;;;6336956;22;45209;-82
2023/03/16 02:48:28;;;;;;;;;6.50;4.75;;;;;;;;6336104;22;45633;-82
2023/03/16 02:50:54;;;;;;;;;5.00;4.00;;;;;;;;6336447;22;45443;-82
2023/03/16 02:53:19;;;;;;;;;3.67;2.00;;;;;;;;6336625;22;45218;-81
2023/03/16 02:55:45;;;;;;;;;5.00;4.50;;;;;;;;6335962;22;45215;-81
2023/03/16 02:58:10;;;;;;;;;5.00;5.00;;;;;;;;6336005;22;46775;-81
2023/03/16 03:00:37;;;;;;;;;5.25;5.00;;;;;;;;6336613;22;45484;-81
2023/03/16 03:03:02;;;;;;;;;8.00;3.50;;;;;;;;6336625;22;45276;-81
2023/03/16 03:05:27;;;;;;;;;5.00;3.33;;;;;;;;6336722;22;45320;-81
2023/03/16 03:07:52;;;;;;;;;7.00;4.33;;;;;;;;6336261;22;45422;-81
2023/03/16 03:10:18;;;;;;;;;6.33;5.00;;;;;;;;6336096;22;45406;-81
2023/03/16 03:12:48;;;;;;;;;2.00;2.00;;;;;;;;6336367;22;45264;-81
2023/03/16 03:15:13;;;;;;;;;4.00;2.00;;;;;;;;6336315;22;45481;-82
2023/03/16 03:17:38;;;;;;;;;5.50;4.00;;;;;;;;6336100;22;46550;-81
2023/03/16 03:20:12;;;;;;;;;7.33;4.67;;;;;;;;6336561;22;45240;-82
2023/03/16 03:22:37;;;;;;;;;4.00;3.00;;;;;;;;6336703;22;45188;-82
2023/03/16 03:25:03;;;;;;;;;5.00;4.25;;;;;;;;6335994;22;45325;-82
2023/03/16 03:27:28;;;;;;;;;5.75;2.00;;;;;;;;6335320;22;46481;-82
2023/03/16 03:29:53;;;;;;;;;4.33;4.33;;;;;;;;6336371;22;45368;-82
2023/03/16 03:32:18;;;;;;;;;8.00;3.33;;;;;;;;6336035;22;45209;-82
2023/03/16 03:34:43;;;;;;;;;2.00;2.00;;;;;;;;6336476;22;45189;-82
2023/03/16 03:37:08;;;;;;;;;3.33;3.33;;;;;;;;6336078;22;46231;-82
2023/03/16 03:39:34;;;;;;;;;6.00;2.00;;;;;;;;6336024;22;45245;-82
2023/03/16 03:42:01;;;;;;;;;5.67;2.00;;;;;;;;6334532;22;45324;-82
2023/03/16 03:44:27;;;;;;;;;4.00;3.25;;;;;;;;6336708;22;45216;-82
2023/03/16 03:46:52;;;;;;;;;2.00;2.00;;;;;;;;6336478;22;46206;-82
2023/03/16 03:49:17;;;;;;;;;6.00;2.00;;;;;;;;6336291;22;45291;-82
2023/03/16 03:51:42;;;;;;;;;3.33;2.00;;;;;;;;6336387;22;45344;-81
2023/03/16 03:54:08;;;;;;;;;2.00;1.00;;;;;;;;6336109;22;45365;-82
2023/03/16 03:56:33;;;;;;;;;4.00;4.00;;;;;;;;6336248;22;45288;-82
2023/03/16 03:59:00;;;;;;;;;6.00;3.33;;;;;;;;6335767;22;45492;-81
2023/03/16 04:01:25;;;;;;;;;6.00;1.50;;;;;;;;6336519;22;45295;-82
2023/03/16 04:03:50;;;;;;;;;4.25;3.25;;;;;;;;6335907;22;45497;-81
2023/03/16 04:06:15;;;;;;;;;2.67;2.00;;;;;;;;6334141;22;47074;-82
2023/03/16 04:08:41;;;;;;;;;5.00;2.00;;;;;;;;6333716;22;45325;-82
2023/03/16 04:11:06;;;;;;;;;9.00;2.00;;;;;;;;6336077;22;45262;-81
2023/03/16 04:13:32;;;;;;;;;2.67;1.00;;;;;;;;6336293;22;45390;-82
2023/03/16 04:15:57;;;;;;;;;3.33;2.00;;;;;;;;6335942;22;45463;-81
2023/03/16 04:18:23;;;;;;;;;4.00;2.00;;;;;;;;6336203;22;45323;-81
2023/03/16 04:20:48;;;;;;;;;4.00;4.00;;;;;;;;6336328;22;45182;-82
2023/03/16 04:23:15;;;;;;;;;8.00;2.67;;;;;;;;6335612;22;45118;-82
2023/03/16 04:25:41;;;;;;;;;4.50;2.00;;;;;;;;6335618;22;46270;-82
2023/03/16 04:28:06;;;;;;;;;1.75;1.75;;;;;;;;6336103;22;45225;-81
2023/03/16 04:30:31;;;;;;;;;4.00;1.00;;;;;;;;6334159;22;45307;-82
2023/03/16 04:32:57;;;;;;;;;5.00;2.00;;;;;;;;6336487;22;45443;-82
2023/03/16 04:35:22;;;;;;;;;8.67;2.00;;;;;;;;6335520;22;45966;-82
2023/03/16 04:37:47;;;;;;;;;2.00;2.00;;;;;;;;6335971;22;45296;-81
2023/03/16 04:40:15;;;;;;;;;1.00;1.00;;;;;;;;6335493;22;45450;-82
2023/03/16 04:42:40;;;;;;;;;4.00;2.00;;;;;;;;6336261;22;45292;-81
2023/03/16 04:45:07;;;;;;;;;2.00;2.00;;;;;;;;6336898;22;45443;-81
2023/03/16 04:47:32;;;;;;;;;4.25;2.00;;;;;;;;6336986;22;45224;-82
2023/03/16 04:49:58;;;;;;;;;3.25;1.25;;;;;;;;6337339;22;46441;-82
2023/03/16 04:52:23;;;;;;;;;3.75;3.50;;;;;;;;6337140;22;45256;-81
2023/03/16 04:54:48;;;;;;;;;1.00;1.00;;;;;;;;6335790;22;47220;-81
2023/03/16 04:57:17;;;;;;;;;3.67;1.00;;;;;;;;6337206;22;45237;-82
2023/03/16 04:59:43;;;;;;;;;1.00;1.00;;;;;;;;6337018;22;45289;-81
2023/03/16 05:02:08;;;;;;;;;1.00;1.00;;;;;;;;6336723;22;45264;-82
2023/03/16 05:04:33;;;;;;;;;1.00;1.00;;;;;;;;6335215;22;46112;-82
2023/03/16 05:06:58;;;;;;;;;4.67;2.00;;;;;;;;6336063;22;45250;-82
2023/03/16 05:09:24;;;;;;;;;1.50;1.50;;;;;;;;6335103;22;45335;-82
2023/03/16 05:11:49;;;;;;;;;4.00;1.25;;;;;;;;6336788;22;45335;-81
2023/03/16 05:14:15;;;;;;;;;2.00;1.00;;;;;;;;6337014;22;46105;-82
2023/03/16 05:16:40;;;;;;;;;5.00;1.00;;;;;;;;6336748;22;45283;-81
2023/03/16 05:19:06;;;;;;;;;1.00;1.00;;;;;;;;6336996;22;45291;-81
2023/03/16 05:21:33;;;;;;;;;6.00;1.33;;;;;;;;6336641;22;45529;-81
2023/03/16 05:23:58;;;;;;;;;3.50;1.50;;;;;;;;6336759;22;45496;-81
2023/03/16 05:26:26;;;;;;;;;3.00;1.33;;;;;;;;6337167;22;45223;-82
2023/03/16 05:28:51;;;;;;;;;1.00;1.00;;;;;;;;6336804;22;45259;-82
2023/03/16 05:31:17;;;;;;;;;0.00;0.00;;;;;;;;6337325;22;45355;-82
2023/03/16 05:33:43;;;;;;;;;1.75;1.75;;;;;;;;6336958;22;45529;-82
2023/03/16 05:36:08;;;;;;;;;3.50;1.00;;;;;;;;6336336;22;45758;-82
2023/03/16 05:38:35;;;;;;;;;1.00;1.00;;;;;;;;6337367;22;45454;-82
2023/03/16 05:41:03;;;;;;;;;1.75;1.75;;;;;;;;6336684;22;45266;-82
2023/03/16 05:43:28;;;;;;;;;5.25;1.00;;;;;;;;6336546;22;46110;-81
2023/03/16 05:45:53;;;;;;;;;4.00;1.33;;;;;;;;6336709;22;45147;-81
2023/03/16 05:48:20;;;;;;;;;1.50;0.75;;;;;;;;6335257;22;45238;-82
2023/03/16 05:50:45;;;;;;;;;1.25;1.00;;;;;;;;6336220;22;45417;-82
2023/03/16 05:53:10;;;;;;;;;5.00;0.50;;;;;;;;6336495;22;46051;-82
2023/03/16 05:55:35;;;;;;;;;1.67;0.00;;;;;;;;6334653;22;45296;-81
2023/03/16 05:58:00;;;;;;;;;2.00;1.00;;;;;;;;6337287;22;45347;-82
2023/03/16 06:00:26;;;;;;;;;3.33;1.00;;;;;;;;6337197;22;45522;-82
2023/03/16 06:02:51;;;;;;;;;2.00;2.00;;;;;;;;6336567;22;47014;-81
2023/03/16 06:05:18;;;;;;;;;2.50;1.00;;;;;;;;6336635;22;45157;-82
2023/03/16 06:07:44;;;;;;;;;3.25;1.00;;;;;;;;6336851;22;45170;-81
2023/03/16 06:10:10;;;;;;;;;1.00;1.00;;;;;;;;6336408;22;45468;-81
2023/03/16 06:12:35;;;;;;;;;1.00;1.00;;;;;;;;6336474;22;46923;-82
2023/03/16 06:15:00;;;;;;;;;3.00;2.50;;;;;;;;6336492;22;45306;-82
2023/03/16 06:17:26;;;;;;;;;0.00;0.00;;;;;;;;6337072;22;45236;-82
2023/03/16 06:19:51;;;;;;;;;4.00;0.33;;;;;;;;6334520;22;45512;-82
2023/03/16 06:22:17;;;;;;;;;4.00;1.00;;;;;;;;6337530;22;45438;-89
2023/03/16 06:24:42;;;;;;;;;1.00;1.00;;;;;;;;6336992;22;45185;-86
2023/03/16 06:27:08;;;;;;;;;3.50;0.00;;;;;;;;6337391;22;45371;-87
2023/03/16 06:29:33;;;;;;;;;3.00;0.50;;;;;;;;6337920;22;45184;-88
2023/03/16 06:31:58;;;;;;;;;3.33;1.00;;;;;;;;6338053;22;46490;-87
2023/03/16 06:34:41;;;;;;;;;;;;;;;;;;;;;
2023/03/16 06:37:07;;;;;;;;;1.50;1.00;;;;;;;;6330417;22;68822;-90
2023/03/16 06:39:32;;;;;;;;;1.00;0.50;;;;;;;;6336719;22;45232;-91
2023/03/16 06:41:57;;;;;;;;;2.00;1.00;;;;;;;;6337308;22;46118;-88
2023/03/16 06:44:23;;;;;;;;;2.00;1.00;;;;;;;;6337150;22;45339;-87
2023/03/16 06:46:51;;;;;;;;;1.75;1.00;;;;;;;;6335517;22;45206;-86
2023/03/16 06:49:20;;;;;;;;;2.00;1.00;;;;;;;;6335643;22;45405;-86
2023/03/16 06:51:50;;;;;;;;;2.75;1.50;;;;;;;;6336448;22;46440;-87
2023/03/16 06:54:15;;;;;;;;;1.00;1.00;;;;;;;;6336929;22;45271;-87
2023/03/16 06:56:43;;;;;;;;;1.00;1.00;;;;;;;;6338317;22;45141;-89
2023/03/16 06:59:08;;;;;;;;;0.75;0.75;;;;;;;;6339004;22;45259;-93
2023/03/16 07:01:36;;;;;;;;;1.00;1.00;;;;;;;;6336836;22;47916;-92
2023/03/16 07:04:06;;;;;;;;;7.25;1.00;;;;;;;;6338210;22;45260;-92
2023/03/16 07:06:31;;;;;;;;;1.00;1.00;;;;;;;;6338601;22;45211;-88
2023/03/16 07:08:57;;;;;;;;;1.00;1.00;;;;;;;;6339272;22;45528;-91
2023/03/16 07:11:24;;;;;;;;;1.25;1.00;;;;;;;;6337778;22;46042;-90
2023/03/16 07:13:50;;;;;;;;;7.00;1.50;;;;;;;;6336288;22;45798;-89
2023/03/16 07:16:18;;;;;;;;;2.00;2.00;;;;;;;;6336947;22;45471;-88
2023/03/16 07:19:09;;;;;;;;;2.00;0.75;;;;;;;;6337148;22;45361;-90
2023/03/16 07:21:38;;;;;;;;;1.75;1.75;;;;;;;;6335396;22;47261;-84
2023/03/16 07:24:04;;;;;;;;;4.00;1.50;;;;;;;;6336963;22;45598;-85
2023/03/16 07:26:31;;;;;;;;;1.75;1.00;;;;;;;;6337016;22;45268;-85
2023/03/16 07:28:56;;;;;;;;;1.00;1.00;;;;;;;;6337032;22;45312;-89
2023/03/16 07:31:21;;;;;;;;;3.25;1.00;;;;;;;;6337172;22;46038;-90
2023/03/16 07:33:46;;;;;;;;;0.50;0.50;;;;;;;;6337356;22;45582;-88
2023/03/16 07:36:19;;;;;;;;;1.00;1.00;;;;;;;;6336311;22;45632;-91
2023/03/16 07:39:05;;;;;;;;;1.00;1.00;;;;;;;;6337815;22;45227;-92
2023/03/16 07:41:40;;;;;;;;;;;;;;;;;;;;;
2023/03/16 07:44:21;;;;;;;;;;;;;;;;;;;;;
2023/03/16 07:46:56;;;;;;;;;1.00;1.00;;;;;;;;6336552;22;67780;-89
2023/03/16 07:49:21;;;;;;;;;1.00;1.00;;;;;;;;6338180;22;45194;-89
2023/03/16 07:51:49;;;;;;;;;1.00;1.00;;;;;;;;6337550;22;46343;-94
2023/03/16 07:54:14;;;;;;;;;5.00;0.50;;;;;;;;6337241;22;45490;-93
2023/03/16 07:57:10;;;;;;;;;;;;;;;;;;;;;
2023/03/16 07:59:35;;;;;;;;;1.00;1.00;;;;;;;;6206089;22;70086;-93
2023/03/16 08:02:04;;;;;;;;;1.25;1.00;;;;;;;;6186712;22;47100;-93
2023/03/16 08:04:30;;;;;;;;;1.25;1.00;;;;;;;;6211928;22;45371;-91
2023/03/16 08:07:09;;;;;;;;;;;;;;;;;;;;;
2023/03/16 08:09:45;;;;;;;;;1.00;1.00;;;;;;;;6207408;22;70568;-90
2023/03/16 08:12:10;;;;;;;;;2.00;0.75;;;;;;;;6211293;22;45769;-89
2023/03/16 08:14:38;;;;;;;;;1.00;0.00;;;;;;;;6210842;22;45254;-91
2023/03/16 08:17:14;;;;;;;;;;;;;;;;;;;;;
2023/03/16 08:19:47;;;;;;;;;2.50;1.00;;;;;;;;6204520;22;71278;-94
2023/03/16 08:22:35;;;;;;;;;0.50;0.50;;;;;;;;6211680;22;45591;-93
2023/03/16 08:25:19;;;;;;;;;;;;;;;;;;;;;
2023/03/16 08:28:12;;;;;;;;;;;;;;;;;;;;;
2023/03/16 08:31:01;;;;;;;;;;;;;;;;;;;;;
2023/03/16 08:33:29;;;;;;;;;2.00;1.00;;;;;;;;6212789;22;74502;-93
2023/03/16 08:36:15;;;;;;;;;4.25;1.00;;;;;;;;6283912;22;45563;-93
2023/03/16 08:38:45;;;;;;;;;1.25;1.00;;;;;;;;6337898;22;45150;-93
2023/03/16 08:41:21;;;;;;;;;;;;;;;;;;;;;
2023/03/16 08:44:06;;;;;;;;;2.00;1.00;;;;;;;;6331720;22;75424;-92
2023/03/16 08:46:35;;;;;;;;;2.00;1.00;;;;;;;;6337999;22;45628;-94
2023/03/16 08:49:12;;;;;;;;;;;;;;;;;;;;;
2023/03/16 08:51:49;;;;;;;;;2.00;1.00;;;;;;;;6334303;22;45342;-92
2023/03/16 08:54:21;;;;;;;;;2.00;2.00;;;;;;;;6336993;22;46991;-91
2023/03/16 08:56:59;;;;;;;;;2.50;1.50;;;;;;;;6336983;22;45153;-91
2023/03/16 08:59:25;;;;;;;;;1.00;0.75;;;;;;;;6337098;22;45347;-91
2023/03/16 09:01:52;;;;;;;;;1.00;1.00;;;;;;;;6336986;22;45553;-89
2023/03/16 09:04:20;;;;;;;;;2.75;1.00;;;;;;;;6336773;22;45273;-93
2023/03/16 09:06:49;;;;;;;;;1.00;1.00;;;;;;;;6336461;22;45406;-93
2023/03/16 09:09:15;;;;;;;;;1.50;1.00;;;;;;;;6337146;22;45233;-92
2023/03/16 09:11:41;;;;;;;;;4.00;2.00;;;;;;;;6336603;22;45276;-92
2023/03/16 09:14:11;;;;;;;;;2.00;1.00;;;;;;;;6336747;22;45495;-93
2023/03/16 09:16:37;;;;;;;;;1.00;1.00;;;;;;;;6336700;22;45240;-89
2023/03/16 09:19:02;;;;;;;;;1.00;1.00;;;;;;;;6335730;22;45284;-90
2023/03/16 09:21:30;;;;;;;;;1.00;1.00;;;;;;;;6336524;22;45269;-91
2023/03/16 09:24:00;;;;;;;;;2.00;1.50;;;;;;;;6335095;22;47377;-90
2023/03/16 09:26:27;;;;;;;;;2.00;2.00;;;;;;;;6334823;22;45592;-89
2023/03/16 09:28:53;;;;;;;;;1.75;1.75;;;;;;;;6336509;22;45143;-91
2023/03/16 09:31:18;;;;;;;;;1.00;1.00;;;;;;;;6340871;22;45495;-90
2023/03/16 09:33:45;;;;;;;;;2.00;0.25;;;;;;;;6338000;22;48329;-90
2023/03/16 09:36:10;;;;;;;;;2.50;1.00;;;;;;;;6338801;22;45293;-90
2023/03/16 09:38:36;;;;;;;;;2.50;1.00;;;;;;;;6339567;22;45394;-91
2023/03/16 09:41:09;;;;;;;;;1.50;1.50;;;;;;;;6339663;22;45342;-91
2023/03/16 09:43:50;;;;;;;;;3.00;1.50;;;;;;;;6340125;22;45692;-91
2023/03/16 09:46:18;;;;;;;;;3.50;2.00;;;;;;;;6339631;22;45246;-92
2023/03/16 09:48:44;;;;;;;;;1.75;1.00;;;;;;;;6338854;22;45285;-90
2023/03/16 09:51:17;;;;;;;;;0.25;0.25;;;;;;;;6340513;22;45429;-90
2023/03/16 09:53:45;;;;;;;;;1.75;1.75;;;;;;;;6340544;22;45590;-92
2023/03/16 09:56:18;;;;;;;;;3.00;1.00;;;;;;;;6338949;22;45186;-91
2023/03/16 09:58:44;;;;;;;;;1.00;1.00;;;;;;;;6337180;22;45876;-91
2023/03/16 10:01:24;;;;;;;;;4.00;1.00;;;;;;;;6339000;22;45417;-90
2023/03/16 10:03:59;;;;;;;;;2.00;0.00;;;;;;;;6338843;22;45613;-91
2023/03/16 10:06:25;;;;;;;;;1.00;0.00;;;;;;;;6338529;22;45185;-92
2023/03/16 10:09:04;;;;;;;;;;;;;;;;;;;;;
2023/03/16 10:11:32;;;;;;;;;4.00;1.00;;;;;;;;6337772;22;68789;-90
2023/03/16 10:14:21;;;;;;;;;;;;;;;;;;;;;
2023/03/16 10:16:56;;;;;;;;;1.00;1.00;;;;;;;;6331001;22;72804;-91
2023/03/16 10:19:24;;;;;;;;;1.00;1.00;;;;;;;;6337926;22;45587;-91
2023/03/16 10:21:51;;;;;;;;;1.25;1.00;;;;;;;;6336933;22;45264;-90
2023/03/16 10:24:48;;;;;;;;;;;;;;;;;;;;;
2023/03/16 10:27:19;;;;;;;;;1.50;1.00;;;;;;;;6333399;22;73551;-91
2023/03/16 10:30:03;;;;;;;;;0.75;0.00;;;;;;;;6340077;22;45256;-89
2023/03/16 10:32:30;;;;;;;;;1.25;1.00;;;;;;;;6338565;22;45393;-90
2023/03/16 10:35:02;;;;;;;;;1.75;1.00;;;;;;;;6338123;22;45450;-91
2023/03/16 10:37:32;;;;;;;;;2.00;1.00;;;;;;;;6337664;22;46085;-90
2023/03/16 10:40:06;;;;;;;;;3.00;1.00;;;;;;;;6336339;22;45725;-89
2023/03/16 10:42:34;;;;;;;;;1.00;1.00;;;;;;;;6338036;22;45268;-90
2023/03/16 10:45:02;;;;;;;;;1.00;1.00;;;;;;;;6337124;22;48420;-89
2023/03/16 10:47:30;;;;;;;;;1.25;0.75;;;;;;;;6337859;22;45475;-90
2023/03/16 10:49:57;;;;;;;;;1.50;0.75;;;;;;;;6336351;22;45654;-91
2023/03/16 10:52:38;;;;;;;;;1.00;1.00;;;;;;;;6338136;22;45208;-91
2023/03/16 10:55:07;;;;;;;;;1.75;1.00;;;;;;;;6338494;22;47324;-91
2023/03/16 10:57:33;;;;;;;;;1.75;1.00;;;;;;;;6336666;22;45608;-90
2023/03/16 11:00:06;;;;;;;;;1.00;1.00;;;;;;;;6338487;22;45227;-90
2023/03/16 11:02:33;;;;;;;;;1.25;1.25;;;;;;;;6336535;22;45288;-89
2023/03/16 11:05:09;;;;;;;;;2.00;2.00;;;;;;;;6336105;22;47025;-90
2023/03/16 11:07:35;;;;;;;;;2.50;1.50;;;;;;;;6337748;22;45777;-90
2023/03/16 11:10:11;;;;;;;;;3.50;2.25;;;;;;;;6336506;22;45284;-89
2023/03/16 11:12:57;;;;;;;;;;;;;;;;;;;;;
2023/03/16 11:18:29;;;;;;;;;1.00;1.00;;;;;;;;6316006;22;45366;-90
2023/03/16 11:20:59;;;;;;;;;2.25;1.50;;;;;;;;6338548;22;45427;-95
2023/03/16 11:26:53;;;;;;;;;2.00;2.00;;;;;;;;6313393;22;46628;-91
2023/03/16 11:29:40;;;;;;;;;2.00;1.00;;;;;;;;6336875;22;45367;-94
2023/03/16 11:38:12;;;;;;;;;1.50;1.50;;;;;;;;6319921;22;46182;-93
2023/03/16 11:40:47;;;;;;;;;1.00;1.00;;;;;;;;6337974;22;45391;-92
2023/03/16 11:43:18;;;;;;;;;2.50;1.50;;;;;;;;6337477;22;45348;-91
2023/03/16 11:46:06;;;;;;;;;1.00;1.00;;;;;;;;6336347;22;45182;-90
2023/03/16 11:48:37;;;;;;;;;3.00;0.25;;;;;;;;6325952;22;45443;-96
2023/03/16 11:51:32;;;;;;;;;2.75;1.25;;;;;;;;6338889;22;45930;-94
2023/03/16 11:54:19;;;;;;;;;1.00;0.00;;;;;;;;6335566;22;45459;-93
2023/03/16 11:56:48;;;;;;;;;3.00;1.00;;;;;;;;6338217;22;45402;-95
2023/03/16 11:59:20;;;;;;;;;2.75;1.25;;;;;;;;6338229;22;47340;-95
2023/03/16 12:02:04;;;;;;;;;2.75;0.50;;;;;;;;6337329;22;45259;-93
2023/03/16 12:04:32;;;;;;;;;1.00;1.00;;;;;;;;6334225;22;45231;-94
2023/03/16 12:06:59;;;;;;;;;1.00;1.00;;;;;;;;6337027;22;45363;-92
2023/03/16 12:09:44;;;;;;;;;1.00;1.00;;;;;;;;6336912;22;46312;-93
2023/03/16 12:12:37;;;;;;;;;;;;;;;;;;;;;
2023/03/16 12:15:27;;;;;;;;;;;;;;;;;;;;;
2023/03/16 12:17:55;;;;;;;;;0.25;0.25;;;;;;;;6332580;22;71452;-91
2023/03/16 12:20:28;;;;;;;;;0.75;0.75;;;;;;;;6334973;22;48151;-93
2023/03/16 12:23:03;;;;;;;;;1.00;1.00;;;;;;;;6335988;22;45274;-91
2023/03/16 12:25:31;;;;;;;;;0.50;0.50;;;;;;;;6334872;22;45342;-91
2023/03/16 12:28:07;;;;;;;;;2.00;2.00;;;;;;;;6335091;22;45238;-92
2023/03/16 12:30:47;;;;;;;;;1.00;0.75;;;;;;;;6335134;22;47094;-90
2023/03/16 12:33:28;;;;;;;;;;;;;;;;;;;;;
2023/03/16 12:36:05;;;;;;;;;3.50;0.75;;;;;;;;6330498;22;70051;-91
2023/03/16 12:38:58;;;;;;;;;;;;;;;;;;;;;
2023/03/16 12:41:47;;;;;;;;;;;;;;;;;;;;;
2023/03/16 12:44:42;;;;;;;;;1.00;1.00;;;;;;;;6336306;22;72997;-92
2023/03/16 12:47:21;;;;;;;;;;;;;;;;;;;;;
2023/03/16 12:49:46;;;;;;;;;1.00;1.00;;;;;;;;6207291;22;71415;-90
2023/03/16 12:52:13;;;;;;;;;1.00;1.00;;;;;;;;6206655;22;46151;-87
2023/03/16 12:54:48;;;;;;;;;0.25;0.25;;;;;;;;6208184;22;45374;-88
2023/03/16 12:57:14;;;;;;;;;0.25;0.00;;;;;;;;6209719;22;45402;-87
2023/03/16 12:59:42;;;;;;;;;0.00;0.00;;;;;;;;6208276;22;45663;-87
2023/03/16 13:02:13;;;;;;;;;0.00;0.00;;;;;;;;6182041;22;48180;-87
2023/03/16 13:04:40;;;;;;;;;0.00;0.00;;;;;;;;6207317;22;45354;-86
2023/03/16 13:07:08;;;;;;;;;0.50;0.00;;;;;;;;6209054;22;45398;-88
2023/03/16 13:09:35;;;;;;;;;0.00;0.00;;;;;;;;6209141;22;45482;-87
2023/03/16 13:12:04;;;;;;;;;0.00;0.00;;;;;;;;6183923;22;48250;-88
2023/03/16 13:14:37;;;;;;;;;0.00;0.00;;;;;;;;6209194;22;45406;-86
2023/03/16 13:17:22;;;;;;;;;0.00;0.00;;;;;;;;6248870;22;45308;-85
2023/03/16 13:20:05;;;;;;;;;0.00;0.00;;;;;;;;6334846;22;45588;-85
2023/03/16 13:22:41;;;;;;;;;0.00;0.00;;;;;;;;6335296;22;46142;-84
2023/03/16 13:25:09;;;;;;;;;0.00;0.00;;;;;;;;6334470;22;45273;-84
2023/03/16 13:27:35;;;;;;;;;0.00;0.00;;;;;;;;6335154;22;45519;-86
2023/03/16 13:30:02;;;;;;;;;0.00;0.00;;;;;;;;6335570;22;45436;-85
2023/03/16 13:32:31;;;;;;;;;0.00;0.00;;;;;;;;6335617;22;47437;-87
2023/03/16 13:34:57;;;;;;;;;0.00;0.00;;;;;;;;6334880;22;45352;-87
2023/03/16 13:37:24;;;;;;;;;0.00;0.00;;;;;;;;6335405;22;45513;-87
2023/03/16 13:39:59;;;;;;;;;0.00;0.00;;;;;;;;6336555;22;45347;-86
2023/03/16 13:42:26;;;;;;;;;0.75;0.00;;;;;;;;6335592;22;47161;-86
2023/03/16 13:44:52;;;;;;;;;0.00;0.00;;;;;;;;6336114;22;45297;-85
2023/03/16 13:47:20;;;;;;;;;0.00;0.00;;;;;;;;6335733;22;45565;-85
2023/03/16 13:49:49;;;;;;;;;0.00;0.00;;;;;;;;6336196;22;45337;-86
2023/03/16 13:52:22;;;;;;;;;0.00;0.00;;;;;;;;6333231;22;47407;-85
2023/03/16 13:54:48;;;;;;;;;1.25;0.00;;;;;;;;6336163;22;45230;-86
2023/03/16 13:57:15;;;;;;;;;0.00;0.00;;;;;;;;6335452;22;45381;-85
2023/03/16 13:59:42;;;;;;;;;0.00;0.00;;;;;;;;6335465;22;45320;-85
2023/03/16 14:02:25;;;;;;;;;0.00;0.00;;;;;;;;6334617;22;46438;-86
2023/03/16 14:04:51;;;;;;;;;0.00;0.00;;;;;;;;6337219;22;45299;-85
2023/03/16 14:07:17;;;;;;;;;0.00;0.00;;;;;;;;6334297;22;45409;-84
2023/03/16 14:09:44;;;;;;;;;1.00;0.00;;;;;;;;6335465;22;45387;-83
2023/03/16 14:12:13;;;;;;;;;0.00;0.00;;;;;;;;6334968;22;46589;-84
2023/03/16 14:14:40;;;;;;;;;0.00;0.00;;;;;;;;6334358;22;45639;-85
2023/03/16 14:17:12;;;;;;;;;1.00;1.00;;;;;;;;6335373;22;45449;-84
2023/03/16 14:19:42;;;;;;;;;0.75;0.25;;;;;;;;6333700;22;45789;-85
2023/03/16 14:22:12;;;;;;;;;3.00;1.00;;;;;;;;6335132;22;46082;-85
2023/03/16 14:24:39;;;;;;;;;0.25;0.25;;;;;;;;6334083;22;45632;-85
2023/03/16 14:27:08;;;;;;;;;0.50;0.25;;;;;;;;6336066;22;45453;-85
2023/03/16 14:29:34;;;;;;;;;2.25;1.00;;;;;;;;6335634;22;45431;-84
2023/03/16 14:31:59;;;;;;;;;0.00;0.00;;;;;;;;6334441;22;46376;-85
2023/03/16 14:34:29;;;;;;;;;0.00;0.00;;;;;;;;6335984;22;45177;-85
2023/03/16 14:37:07;;;;;;;;;0.75;0.00;;;;;;;;6335682;22;45449;-83
2023/03/16 14:39:32;;;;;;;;;0.75;0.00;;;;;;;;6335136;22;45428;-83
2023/03/16 14:42:01;;;;;;;;;0.00;0.00;;;;;;;;6335304;22;46213;-84
2023/03/16 14:44:30;;;;;;;;;0.00;0.00;;;;;;;;6334715;22;45582;-84
2023/03/16 14:46:56;;;;;;;;;0.25;0.00;;;;;;;;6335160;22;45320;-84
2023/03/16 14:49:22;;;;;;;;;3.00;0.00;;;;;;;;6333556;22;45405;-85
2023/03/16 14:51:49;;;;;;;;;0.00;0.00;;;;;;;;6334967;22;45615;-84
2023/03/16 14:54:15;;;;;;;;;0.00;0.00;;;;;;;;6335435;22;45224;-84
2023/03/16 14:56:41;;;;;;;;;0.50;0.00;;;;;;;;6334624;22;45493;-85
2023/03/16 14:59:08;;;;;;;;;0.00;0.00;;;;;;;;6333534;22;45564;-85
2023/03/16 15:01:34;;;;;;;;;0.00;0.00;;;;;;;;6334642;22;47165;-87
2023/03/16 15:03:59;;;;;;;;;0.00;0.00;;;;;;;;6333625;22;45732;-86
2023/03/16 15:06:25;;;;;;;;;0.00;0.00;;;;;;;;6335984;22;45315;-86
2023/03/16 15:08:51;;;;;;;;;1.75;0.00;;;;;;;;6335353;22;45202;-85
2023/03/16 15:11:20;;;;;;;;;0.00;0.00;;;;;;;;6334638;22;46247;-85
2023/03/16 15:16:12;;;;;;;;;0.00;0.00;;;;;;;;6336034;22;45280;-88
2023/03/16 15:18:38;;;;;;;;;0.00;0.00;;;;;;;;6334365;22;45479;-88
2023/03/16 15:21:08;;;;;;;;;0.00;0.00;;;;;;;;6335823;22;46609;-87
2023/03/16 15:23:34;;;;;;;;;0.00;0.00;;;;;;;;6335674;22;45634;-86
2023/03/16 15:26:01;;;;;;;;;1.00;0.00;;;;;;;;6336029;22;46044;-87
2023/03/16 15:28:27;;;;;;;;;0.25;0.00;;;;;;;;6335172;22;45236;-87
2023/03/16 15:30:53;;;;;;;;;0.75;0.75;;;;;;;;6335564;22;46930;-87